Time;durP1;ratioP1;P1;durP2;ratioP2;P2;SDS_P1;SDS_P2;PMS_P1;PMS_P2;Temp;Humidity;BMP_temperature;BMP_pressure;BME280_temperature;BME280_humidity;BME280_pressure;Samples;Min_cycle;Max_cycle;Signal;HPM_P1;HPM_P2
2022/03/09 00:01:54;;;;;;;;;92.25;76.25;;;;;5.87;57.72;101242.28;5145198;27;44971;-82
2022/03/09 00:04:19;;;;;;;;;92.25;77.00;;;;;5.97;58.07;101286.41;5122665;27;46849;-82
2022/03/09 00:06:45;;;;;;;;;99.00;85.33;;;;;6.07;57.82;101290.50;5142057;27;45166;-83
2022/03/09 00:09:11;;;;;;;;;96.00;81.00;;;;;6.27;58.24;101336.06;5148887;27;45325;-82
2022/03/09 00:11:37;;;;;;;;;96.25;76.50;;;;;6.02;58.44;101294.53;5148005;27;45256;-83
2022/03/09 00:14:03;;;;;;;;;92.50;75.25;;;;;6.41;58.48;101359.59;5138162;27;45165;-82
2022/03/09 00:16:28;;;;;;;;;92.75;77.00;;;;;6.11;58.66;101310.75;5138506;27;45143;-82
2022/03/09 00:18:54;;;;;;;;;86.25;66.25;;;;;6.24;58.59;101335.88;5154263;27;45094;-83
2022/03/09 00:21:19;;;;;;;;;94.25;75.00;;;;;6.11;58.56;101310.75;5140221;27;45073;-82
2022/03/09 00:23:44;;;;;;;;;87.00;68.00;;;;;6.06;58.47;101299.09;5133262;27;45225;-82
2022/03/09 00:26:09;;;;;;;;;88.33;69.00;;;;;6.45;58.47;101363.28;5143769;27;45396;-82
2022/03/09 00:28:35;;;;;;;;;87.33;67.33;;;;;6.28;57.97;101346.59;5123844;27;45161;-83
2022/03/09 00:31:00;;;;;;;;;87.00;66.75;;;;;6.41;58.35;101376.97;5153097;27;44977;-83
2022/03/09 00:33:26;;;;;;;;;86.67;67.33;;;;;6.21;58.33;101341.81;5140326;27;45686;-83
2022/03/09 00:35:51;;;;;;;;;87.67;70.00;;;;;6.27;58.39;101354.34;5147510;27;45208;-82
2022/03/09 00:38:16;;;;;;;;;85.33;65.00;;;;;6.30;58.37;101351.91;5135453;27;45528;-82
2022/03/09 00:40:42;;;;;;;;;85.00;66.67;;;;;6.27;58.61;101360.47;5141863;27;45265;-83
2022/03/09 00:43:07;;;;;;;;;84.00;65.00;;;;;6.24;58.57;101360.25;5133584;27;45600;-82
2022/03/09 00:45:32;;;;;;;;;82.67;65.67;;;;;5.67;58.30;101262.81;5146844;27;44958;-82
2022/03/09 00:47:58;;;;;;;;;86.50;66.75;;;;;6.19;58.66;101362.59;5136911;27;45551;-83
2022/03/09 00:50:23;;;;;;;;;85.00;65.33;;;;;6.22;58.53;101379.25;5132274;27;45609;-83
2022/03/09 00:52:48;;;;;;;;;86.00;66.67;;;;;6.11;58.85;101376.00;5140769;27;45336;-83
2022/03/09 00:55:14;;;;;;;;;87.67;71.67;;;;;5.89;58.97;101338.06;5118735;27;45497;-83
2022/03/09 00:57:40;;;;;;;;;83.25;65.25;;;;;6.13;58.92;101393.53;5131838;27;45306;-83
2022/03/09 01:00:06;;;;;;;;;83.50;64.50;;;;;6.03;58.74;101382.44;5130767;27;45329;-83
2022/03/09 01:02:32;;;;;;;;;80.75;64.25;;;;;5.98;58.92;101370.81;5128747;27;47794;-83
2022/03/09 01:04:57;;;;;;;;;89.33;67.67;;;;;5.25;58.51;101244.44;5135493;27;45168;-83
2022/03/09 01:07:23;;;;;;;;;84.75;66.25;;;;;5.94;58.92;101359.25;5148022;27;45304;-83
2022/03/09 01:09:48;;;;;;;;;84.67;65.00;;;;;5.51;58.78;101279.97;5141143;27;45400;-83
2022/03/09 01:12:13;;;;;;;;;86.25;67.50;;;;;6.04;58.66;101366.84;5137710;27;45157;-83
2022/03/09 01:14:39;;;;;;;;;83.50;64.50;;;;;5.99;58.42;101354.34;5129877;27;45428;-83
2022/03/09 01:17:04;;;;;;;;;85.00;65.67;;;;;6.23;58.53;101400.22;5111285;27;45439;-83
2022/03/09 01:19:30;;;;;;;;;84.67;64.67;;;;;5.86;58.36;101329.13;5127009;27;45413;-83
2022/03/09 01:21:55;;;;;;;;;82.50;65.50;;;;;6.19;58.63;101393.91;5124062;27;45469;-83
2022/03/09 01:24:20;;;;;;;;;82.33;66.00;;;;;5.99;58.65;101370.00;5131088;27;45691;-82
2022/03/09 01:26:46;;;;;;;;;87.00;69.25;;;;;5.97;58.85;101369.00;5100064;27;45700;-83
2022/03/09 01:29:11;;;;;;;;;84.33;65.33;;;;;5.98;58.69;101374.31;5127346;27;45614;-83
2022/03/09 01:31:37;;;;;;;;;84.00;66.33;;;;;6.11;58.98;101402.09;5095769;27;46969;-83
2022/03/09 01:34:03;;;;;;;;;81.75;64.75;;;;;5.92;59.09;101377.44;5127371;27;45361;-83
2022/03/09 01:36:28;;;;;;;;;85.25;66.75;;;;;6.04;59.31;101399.88;5098681;27;45478;-83
2022/03/09 01:38:53;;;;;;;;;88.33;67.00;;;;;5.56;59.09;101315.97;5129633;27;45311;-83
2022/03/09 01:41:19;;;;;;;;;84.00;65.00;;;;;5.97;59.31;101398.59;5134287;27;46034;-82
2022/03/09 01:43:44;;;;;;;;;84.00;65.00;;;;;5.89;59.19;101381.50;5119622;27;45768;-83
2022/03/09 01:46:09;;;;;;;;;83.33;64.33;;;;;5.70;59.43;101345.53;5116681;27;45432;-82
2022/03/09 01:48:35;;;;;;;;;85.75;65.00;;;;;5.93;59.42;101394.00;5103797;27;45398;-83
2022/03/09 01:51:00;;;;;;;;;85.50;66.50;;;;;5.68;59.22;101358.47;5139403;27;45503;-83
2022/03/09 01:53:26;;;;;;;;;86.25;66.00;;;;;5.65;59.40;101355.66;5114707;27;45705;-83
2022/03/09 01:55:51;;;;;;;;;83.50;64.50;;;;;5.72;59.25;101371.72;5139760;27;45421;-83
2022/03/09 01:58:17;;;;;;;;;84.00;65.00;;;;;5.61;59.08;101357.97;5143011;27;45153;-83
2022/03/09 02:00:42;;;;;;;;;78.50;60.25;;;;;5.76;59.70;101386.75;5137663;27;45665;-83
2022/03/09 02:03:07;;;;;;;;;80.00;63.25;;;;;5.43;59.87;101326.44;5105408;27;45872;-82
2022/03/09 02:05:34;;;;;;;;;76.67;60.33;;;;;5.53;60.07;101343.56;5131356;27;45456;-83
2022/03/09 02:10:44;;;;;;;;;86.25;66.75;;;;;5.43;60.28;101326.44;5127236;27;45609;-83
2022/03/09 02:13:10;;;;;;;;;84.75;64.75;;;;;5.41;59.93;101326.31;5128936;27;45562;-83
2022/03/09 02:15:35;;;;;;;;;86.33;66.67;;;;;5.59;59.92;101370.94;5109741;27;45619;-82
2022/03/09 02:18:02;;;;;;;;;84.00;65.75;;;;;5.67;60.09;101376.66;5112605;27;45518;-82
2022/03/09 02:20:28;;;;;;;;;83.00;66.00;;;;;5.68;59.93;101376.75;5129173;27;45656;-82
2022/03/09 02:22:53;;;;;;;;;80.75;63.00;;;;;5.59;59.98;101365.72;5114165;27;45819;-83
2022/03/09 02:25:20;;;;;;;;;82.50;62.00;;;;;5.61;60.11;101369.31;5131120;27;45439;-83
2022/03/09 02:27:46;;;;;;;;;80.00;63.25;;;;;5.40;60.18;101337.56;5130219;27;45310;-83
2022/03/09 02:30:14;;;;;;;;;81.00;63.25;;;;;5.63;60.20;101377.25;5105717;27;48291;-83
2022/03/09 02:32:42;;;;;;;;;79.50;64.00;;;;;5.50;60.01;101353.78;5118079;27;45460;-82
2022/03/09 02:35:09;;;;;;;;;83.00;65.50;;;;;5.34;60.05;101336.25;5117761;27;45475;-82
2022/03/09 02:37:34;;;;;;;;;77.75;62.25;;;;;5.32;59.95;101337.84;5127496;27;45688;-83
2022/03/09 02:40:00;;;;;;;;;78.00;62.00;;;;;5.44;60.43;101362.13;5129768;27;45373;-83
2022/03/09 02:42:25;;;;;;;;;76.00;60.33;;;;;5.13;59.94;101315.81;5124734;27;45331;-82
2022/03/09 02:44:50;;;;;;;;;74.50;58.50;;;;;5.42;60.22;101372.47;5144149;27;45126;-83
2022/03/09 02:47:16;;;;;;;;;84.67;65.00;;;;;5.38;60.31;101365.22;5143736;27;45249;-82
2022/03/09 02:49:41;;;;;;;;;77.00;62.33;;;;;5.34;60.12;101354.50;5122294;27;48279;-83
2022/03/09 02:52:06;;;;;;;;;72.67;58.00;;;;;5.22;60.19;101332.84;5144902;27;45122;-83
2022/03/09 02:54:32;;;;;;;;;82.50;62.50;;;;;5.27;60.38;101342.78;5143969;27;45397;-82
2022/03/09 02:56:57;;;;;;;;;84.50;64.50;;;;;5.34;60.66;101357.13;5125520;27;45359;-82
2022/03/09 02:59:23;;;;;;;;;77.67;61.33;;;;;5.21;60.58;101329.34;5139457;27;45763;-82
2022/03/09 03:01:48;;;;;;;;;82.00;64.67;;;;;5.18;60.77;101330.06;5144724;27;44998;-82
2022/03/09 03:04:14;;;;;;;;;79.33;61.33;;;;;5.27;60.68;101361.03;5133138;27;45066;-83
2022/03/09 03:06:39;;;;;;;;;81.50;62.75;;;;;5.08;60.73;101331.97;5126652;27;45117;-83
2022/03/09 03:09:04;;;;;;;;;75.67;60.67;;;;;5.40;60.65;101391.38;5130689;27;45942;-82
2022/03/09 03:11:29;;;;;;;;;78.33;59.67;;;;;5.26;60.73;101368.72;5130996;27;45397;-83
2022/03/09 03:13:55;;;;;;;;;79.67;60.67;;;;;5.24;60.80;101372.94;5151019;27;45147;-82
2022/03/09 03:16:20;;;;;;;;;78.75;62.50;;;;;5.23;60.72;101376.38;5125615;27;45251;-82
2022/03/09 03:18:46;;;;;;;;;84.00;65.00;;;;;5.22;60.84;101371.94;5129365;27;47145;-83
2022/03/09 03:21:11;;;;;;;;;77.75;59.75;;;;;5.07;60.92;101362.28;5129481;27;45067;-82
2022/03/09 03:23:36;;;;;;;;;79.25;63.50;;;;;4.83;61.01;101313.81;5111141;27;45188;-82
2022/03/09 03:26:04;;;;;;;;;79.50;64.00;;;;;5.07;61.21;101359.69;5130216;27;44980;-83
2022/03/09 03:28:30;;;;;;;;;78.00;60.75;;;;;5.31;61.06;101403.81;5116234;27;47248;-82
2022/03/09 03:30:56;;;;;;;;;77.75;60.25;;;;;5.18;61.02;101376.06;5132240;27;45211;-83
2022/03/09 03:33:21;;;;;;;;;81.00;63.50;;;;;4.99;60.76;101341.78;5131546;27;45209;-83
2022/03/09 03:35:48;;;;;;;;;78.50;61.25;;;;;5.28;61.06;101385.38;5150623;27;45119;-83
2022/03/09 03:38:13;;;;;;;;;78.00;61.25;;;;;4.92;61.15;101322.22;5131980;27;47102;-83
2022/03/09 03:40:39;;;;;;;;;77.50;60.00;;;;;5.21;61.02;101371.03;5150003;27;45048;-83
2022/03/09 03:43:05;;;;;;;;;73.25;58.50;;;;;5.20;61.00;101361.41;5150671;27;45239;-83
2022/03/09 03:45:31;;;;;;;;;78.75;60.25;;;;;5.26;61.11;101368.72;5150385;27;44995;-83
2022/03/09 03:47:56;;;;;;;;;77.00;60.25;;;;;5.13;61.27;101343.59;5119725;27;46439;-83
2022/03/09 03:50:22;;;;;;;;;76.00;60.75;;;;;5.35;61.36;101385.88;5129656;27;44995;-83
2022/03/09 03:52:47;;;;;;;;;79.00;60.75;;;;;5.08;61.27;101345.00;5128430;27;45509;-82
2022/03/09 03:55:13;;;;;;;;;74.25;59.00;;;;;5.28;61.25;101391.50;5132233;27;45422;-83
2022/03/09 03:57:39;;;;;;;;;82.50;62.00;;;;;5.02;61.29;101345.47;5125832;27;45584;-82
2022/03/09 04:00:06;;;;;;;;;77.00;61.00;;;;;5.08;61.09;101366.72;5120593;27;45447;-82
2022/03/09 04:02:31;;;;;;;;;75.50;61.00;;;;;5.10;60.66;101385.06;5110648;27;45732;-83
2022/03/09 04:04:56;;;;;;;;;79.25;61.75;;;;;5.00;61.30;101375.72;5111046;27;45374;-82
2022/03/09 04:07:22;;;;;;;;;79.00;58.75;;;;;5.00;61.38;101380.03;5124981;27;46140;-82
2022/03/09 04:09:47;;;;;;;;;77.00;59.33;;;;;5.10;61.63;101401.59;5127475;27;45358;-82
2022/03/09 04:12:12;;;;;;;;;69.67;54.33;;;;;4.96;61.56;101378.03;5147245;27;45405;-82
2022/03/09 04:14:38;;;;;;;;;72.00;55.50;;;;;4.99;61.88;101384.34;5145691;27;45288;-83
2022/03/09 04:17:04;;;;;;;;;77.75;61.00;;;;;5.10;61.93;101393.78;5129963;27;45727;-83
2022/03/09 04:19:29;;;;;;;;;74.00;58.25;;;;;5.05;61.70;101378.63;5110100;27;45015;-83
2022/03/09 04:21:54;;;;;;;;;73.25;58.25;;;;;4.96;61.79;101371.09;5110831;27;45078;-82
2022/03/09 04:24:20;;;;;;;;;72.00;57.00;;;;;4.93;61.96;101365.72;5128747;27;44952;-82
2022/03/09 04:26:45;;;;;;;;;79.50;59.75;;;;;4.75;61.99;101344.53;5148021;27;45199;-82
2022/03/09 04:29:11;;;;;;;;;71.75;56.25;;;;;4.88;62.31;101361.91;5150802;27;45014;-82
2022/03/09 04:31:37;;;;;;;;;72.50;56.50;;;;;4.86;62.27;101368.69;5131512;27;45117;-82
2022/03/09 04:34:02;;;;;;;;;69.50;56.25;;;;;4.96;62.44;101386.75;5152871;27;45059;-82
2022/03/09 04:36:28;;;;;;;;;74.75;58.50;;;;;4.86;62.45;101373.91;5117215;27;47723;-83
2022/03/09 04:38:54;;;;;;;;;73.00;57.25;;;;;5.00;62.48;101407.00;5132300;27;45232;-82
2022/03/09 04:41:19;;;;;;;;;71.75;56.00;;;;;5.04;62.65;101402.91;5113728;27;45204;-82
2022/03/09 04:43:44;;;;;;;;;67.75;56.75;;;;;4.86;62.51;101369.59;5129004;27;44935;-82
2022/03/09 04:46:10;;;;;;;;;72.00;55.33;;;;;5.00;62.50;101393.06;5127306;27;48344;-82
2022/03/09 04:48:35;;;;;;;;;78.00;61.00;;;;;5.05;62.71;101408.19;5116425;27;45895;-82
2022/03/09 04:51:02;;;;;;;;;66.67;53.33;;;;;4.81;63.13;101365.78;5135213;27;45679;-82
2022/03/09 04:53:28;;;;;;;;;67.00;55.25;;;;;4.92;62.84;101379.50;5118981;27;45610;-83
2022/03/09 04:55:54;;;;;;;;;71.00;58.25;;;;;4.86;62.60;101376.50;5132316;27;46970;-82
2022/03/09 04:58:19;;;;;;;;;64.00;55.00;;;;;4.79;63.09;101354.38;5133953;27;45153;-82
2022/03/09 05:00:45;;;;;;;;;66.75;55.00;;;;;4.98;63.19;101392.97;5153145;27;45143;-82
2022/03/09 05:03:10;;;;;;;;;72.33;56.33;;;;;4.77;62.86;101362.84;5152734;27;45018;-82
2022/03/09 05:05:35;;;;;;;;;71.67;57.00;;;;;4.81;62.77;101378.78;5142494;27;45246;-82
2022/03/09 05:08:01;;;;;;;;;75.33;59.33;;;;;4.83;62.97;101387.63;5131622;27;45215;-82
2022/03/09 05:10:26;;;;;;;;;74.00;58.00;;;;;4.78;62.88;101389.03;5131282;27;45308;-82
2022/03/09 05:12:51;;;;;;;;;71.33;57.00;;;;;4.43;63.05;101325.81;5131659;27;45043;-82
2022/03/09 05:15:17;;;;;;;;;70.67;56.67;;;;;4.86;62.83;101407.75;5137965;27;45370;-82
2022/03/09 05:17:44;;;;;;;;;68.00;54.67;;;;;4.95;63.13;101426.63;5152464;27;45156;-82
2022/03/09 05:20:11;;;;;;;;;68.50;55.25;;;;;5.02;62.97;101435.72;5152668;27;45313;-82
2022/03/09 05:22:37;;;;;;;;;67.50;55.75;;;;;4.93;63.04;101423.00;5152351;27;45193;-82
2022/03/09 05:25:03;;;;;;;;;71.25;57.75;;;;;5.03;63.07;101446.28;5145574;27;45455;-82
2022/03/09 05:27:28;;;;;;;;;70.25;57.00;;;;;4.82;63.16;101416.16;5131188;27;45495;-82
2022/03/09 05:29:54;;;;;;;;;75.00;57.50;;;;;5.00;63.21;101450.38;5131711;27;45234;-82
2022/03/09 05:32:19;;;;;;;;;69.50;56.75;;;;;4.68;63.09;101401.28;5131156;27;45373;-82
2022/03/09 05:34:47;;;;;;;;;72.00;58.67;;;;;4.95;63.33;101455.25;5135086;27;45868;-82
2022/03/09 05:37:13;;;;;;;;;68.25;55.00;;;;;4.78;63.22;101437.56;5152057;27;45246;-82
2022/03/09 05:39:38;;;;;;;;;72.00;56.50;;;;;4.66;63.27;101432.44;5143545;27;45305;-82
2022/03/09 05:42:04;;;;;;;;;69.00;55.50;;;;;4.87;63.24;101467.75;5112665;27;45087;-82
2022/03/09 05:44:30;;;;;;;;;74.75;57.75;;;;;4.78;63.44;101450.59;5131811;27;47354;-82
2022/03/09 05:46:57;;;;;;;;;64.50;52.75;;;;;4.48;63.38;101407.72;5109556;27;45474;-82
2022/03/09 05:49:22;;;;;;;;;66.50;55.75;;;;;4.73;63.65;101449.38;5131567;27;45442;-82
2022/03/09 05:51:49;;;;;;;;;69.25;55.25;;;;;4.30;63.55;101389.16;5134481;27;45112;-82
2022/03/09 05:54:15;;;;;;;;;69.00;55.25;;;;;4.27;63.49;101378.50;5131117;27;45212;-82
2022/03/09 05:56:41;;;;;;;;;69.75;55.25;;;;;4.82;63.55;101492.56;5150949;27;45077;-82
2022/03/09 05:59:06;;;;;;;;;68.00;56.75;;;;;4.66;63.57;101464.56;5124468;27;45124;-82
2022/03/09 06:01:32;;;;;;;;;70.00;55.00;;;;;4.80;63.67;101488.06;5130729;27;45082;-82
2022/03/09 06:03:57;;;;;;;;;71.50;55.50;;;;;4.76;63.71;101471.31;5131032;27;45165;-82
2022/03/09 06:06:23;;;;;;;;;74.00;57.33;;;;;4.70;63.68;101470.91;5132013;27;45273;-82
2022/03/09 06:08:48;;;;;;;;;69.00;52.50;;;;;4.73;63.59;101480.63;5131106;27;45370;-83
2022/03/09 06:11:13;;;;;;;;;78.00;60.33;;;;;4.54;63.93;101450.72;5130928;27;45027;-82
2022/03/09 06:13:39;;;;;;;;;69.33;57.00;;;;;4.69;63.63;101473.41;5130101;27;45898;-82
2022/03/09 06:16:05;;;;;;;;;69.50;53.25;;;;;4.65;63.49;101483.59;5132154;27;45163;-82
2022/03/09 06:18:30;;;;;;;;;71.00;57.25;;;;;4.69;63.91;101481.22;5130784;27;45278;-82
2022/03/09 06:20:55;;;;;;;;;66.33;53.67;;;;;4.58;63.84;101465.75;5130760;27;45230;-82
2022/03/09 06:23:21;;;;;;;;;65.33;50.00;;;;;4.16;63.65;101397.69;5129866;27;45962;-82
2022/03/09 06:25:46;;;;;;;;;68.50;54.00;;;;;4.22;63.96;101409.41;5144824;27;46544;-82
2022/03/09 06:28:11;;;;;;;;;71.50;54.00;;;;;4.53;64.03;101463.59;5151513;27;45481;-82
2022/03/09 06:30:37;;;;;;;;;65.00;53.75;;;;;4.77;63.99;101500.88;5135534;27;45260;-82
2022/03/09 06:33:02;;;;;;;;;67.75;55.00;;;;;4.49;63.96;101451.19;5141944;27;46205;-82
2022/03/09 06:35:28;;;;;;;;;62.75;52.25;;;;;4.62;64.41;101470.34;5130162;27;45174;-82
2022/03/09 06:37:53;;;;;;;;;66.25;52.00;;;;;4.19;64.59;101382.25;5130710;27;45481;-82
2022/03/09 06:40:19;;;;;;;;;67.25;54.75;;;;;4.80;64.54;101477.66;5129823;27;45247;-85
2022/03/09 06:42:44;;;;;;;;;63.00;51.75;;;;;4.88;64.46;101506.03;5134796;27;45406;-82
2022/03/09 06:45:10;;;;;;;;;65.33;55.33;;;;;4.93;64.52;101501.16;5150834;27;45136;-82
2022/03/09 06:47:38;;;;;;;;;71.50;55.50;;;;;4.79;64.54;101473.25;5141859;27;44968;-82
2022/03/09 06:50:05;;;;;;;;;71.75;56.25;;;;;5.06;63.85;101511.59;5130650;27;45301;-82
2022/03/09 06:52:30;;;;;;;;;67.75;55.50;;;;;4.92;64.16;101468.97;5149483;27;45548;-86
2022/03/09 06:54:56;;;;;;;;;72.00;57.00;;;;;5.14;64.01;101497.41;5131616;27;45120;-83
2022/03/09 06:57:21;;;;;;;;;69.00;52.75;;;;;5.00;64.07;101474.72;5150192;27;45177;-83
2022/03/09 06:59:49;;;;;;;;;64.33;53.00;;;;;5.23;64.01;101498.84;5150923;27;45027;-83
2022/03/09 07:02:14;;;;;;;;;67.25;55.75;;;;;5.30;64.23;101506.25;5133887;27;46060;-84
2022/03/09 07:04:39;;;;;;;;;68.67;54.67;;;;;5.28;63.96;101487.03;5130843;27;45180;-84
2022/03/09 07:07:05;;;;;;;;;69.00;55.00;;;;;5.48;63.92;101490.97;5131628;27;44985;-84
2022/03/09 07:09:30;;;;;;;;;64.75;52.75;;;;;5.51;63.55;101476.41;5129470;27;45096;-82
2022/03/09 07:11:57;;;;;;;;;72.75;57.50;;;;;5.89;63.66;101527.59;5129974;27;45558;-83
2022/03/09 07:14:22;;;;;;;;;69.50;56.00;;;;;5.98;63.51;101522.13;5128987;27;45418;-84
2022/03/09 07:16:48;;;;;;;;;74.00;58.25;;;;;6.14;63.46;101525.81;5130401;27;45104;-83
2022/03/09 07:19:13;;;;;;;;;67.00;55.67;;;;;6.09;63.21;101500.22;5134999;27;45117;-83
2022/03/09 07:21:38;;;;;;;;;70.67;54.67;;;;;6.26;64.01;101499.63;5148392;27;45722;-82
2022/03/09 07:24:04;;;;;;;;;58.00;48.67;;;;;6.53;64.05;101536.13;5149437;27;45410;-82
2022/03/09 07:26:30;;;;;;;;;60.00;46.50;;;;;6.46;64.25;101508.72;5148850;27;45130;-82
2022/03/09 07:28:56;;;;;;;;;61.33;46.33;;;;;6.60;64.34;101522.63;5148725;27;45213;-82
2022/03/09 07:31:21;;;;;;;;;57.25;45.50;;;;;6.53;64.10;101497.84;5150167;27;45274;-82
2022/03/09 07:33:47;;;;;;;;;62.67;50.00;;;;;6.71;63.95;101516.38;5150482;27;45021;-82
2022/03/09 07:36:12;;;;;;;;;56.67;46.67;;;;;6.46;64.07;101473.06;5150368;27;45681;-83
2022/03/09 07:38:38;;;;;;;;;61.67;48.67;;;;;6.79;64.06;101530.81;5148557;27;45250;-82
2022/03/09 07:41:04;;;;;;;;;57.00;46.00;;;;;6.66;64.15;101504.75;5150195;27;45333;-82
2022/03/09 07:43:29;;;;;;;;;59.00;47.25;;;;;6.94;64.39;101541.31;5149692;27;45223;-82
2022/03/09 07:45:54;;;;;;;;;50.33;43.67;;;;;6.70;64.24;101473.69;5134943;27;45275;-81
2022/03/09 07:48:20;;;;;;;;;54.33;45.00;;;;;6.92;64.34;101486.34;5144307;27;45244;-82
2022/03/09 07:50:45;;;;;;;;;46.33;40.00;;;;;7.27;64.33;101524.16;5130659;27;45723;-82
2022/03/09 07:53:11;;;;;;;;;52.00;41.75;;;;;7.30;64.41;101502.53;5124088;27;45425;-83
2022/03/09 07:55:36;;;;;;;;;54.00;44.75;;;;;7.56;63.84;101531.13;5120209;27;45650;-83
2022/03/09 07:58:02;;;;;;;;;48.25;41.00;;;;;7.74;64.00;101547.03;5122340;27;45191;-84
2022/03/09 08:00:27;;;;;;;;;45.00;41.50;;;;;7.37;63.88;101478.56;5129391;27;45380;-82
2022/03/09 08:02:53;;;;;;;;;56.50;43.50;;;;;7.91;63.95;101556.75;5138404;27;44938;-82
2022/03/09 08:05:18;;;;;;;;;46.00;40.50;;;;;8.00;63.86;101565.13;5150171;27;45080;-83
2022/03/09 08:07:45;;;;;;;;;48.25;41.25;;;;;7.33;63.54;101440.84;5132465;27;45238;-88
2022/03/09 08:10:11;;;;;;;;;54.50;45.25;;;;;8.06;63.50;101550.59;5137432;27;45861;-86
2022/03/09 08:12:37;;;;;;;;;57.75;45.25;;;;;8.22;63.39;101563.75;5137448;27;45703;-84
2022/03/09 08:15:04;;;;;;;;;44.25;39.25;;;;;8.32;63.44;101567.78;5133070;27;45190;-83
2022/03/09 08:17:29;;;;;;;;;51.50;43.25;;;;;8.36;63.32;101567.16;5114283;27;45028;-85
2022/03/09 08:19:54;;;;;;;;;67.25;54.50;;;;;8.36;63.16;101551.44;5143967;27;45886;-88
2022/03/09 08:22:21;;;;;;;;;55.25;48.00;;;;;8.35;63.10;101533.91;5152662;27;44958;-85
2022/03/09 08:24:47;;;;;;;;;62.50;51.00;;;;;8.42;63.16;101536.09;5130303;27;45172;-87
2022/03/09 08:27:12;;;;;;;;;60.75;49.00;;;;;8.40;62.88;101524.63;5133248;27;45041;-84
2022/03/09 08:29:38;;;;;;;;;55.00;46.50;;;;;8.58;63.22;101556.22;5133149;27;45452;-89
2022/03/09 08:32:03;;;;;;;;;51.50;41.50;;;;;8.47;62.82;101524.16;5131105;27;45314;-86
2022/03/09 08:34:29;;;;;;;;;52.00;42.25;;;;;8.60;63.58;101524.03;5133519;27;45128;-90
2022/03/09 08:36:54;;;;;;;;;55.00;45.00;;;;;8.83;63.19;101559.34;5133762;27;45320;-86
2022/03/09 08:39:20;;;;;;;;;51.00;42.25;;;;;8.67;63.33;101506.91;5098696;27;47200;-87
2022/03/09 08:41:45;;;;;;;;;48.75;41.75;;;;;9.14;63.00;101566.25;5132083;27;45349;-84
2022/03/09 08:44:10;;;;;;;;;54.00;43.00;;;;;9.20;63.16;101562.22;5131978;27;45149;-82
2022/03/09 08:46:36;;;;;;;;;48.50;42.25;;;;;9.23;63.14;101559.78;5144831;27;45035;-83
2022/03/09 08:49:02;;;;;;;;;49.67;41.00;;;;;9.41;63.24;101572.97;5132973;27;45566;-82
2022/03/09 08:51:27;;;;;;;;;49.25;42.25;;;;;9.28;63.15;101532.06;5151235;27;45275;-82
2022/03/09 08:53:52;;;;;;;;;48.00;42.00;;;;;9.53;63.33;101551.69;5153190;27;45070;-84
2022/03/09 08:56:18;;;;;;;;;40.00;35.50;;;;;9.55;63.39;101532.56;5142176;27;45445;-84
2022/03/09 08:58:43;;;;;;;;;42.75;37.75;;;;;9.79;62.86;101559.16;5133695;27;46073;-88
2022/03/09 09:01:09;;;;;;;;;46.00;39.75;;;;;9.90;63.18;101565.00;5129561;27;45135;-81
2022/03/09 09:03:35;;;;;;;;;40.50;38.00;;;;;9.87;63.05;101545.53;5130718;27;45152;-84
2022/03/09 09:06:01;;;;;;;;;42.33;35.67;;;;;9.90;63.10;101545.69;5132034;27;45128;-83
2022/03/09 09:08:26;;;;;;;;;45.75;37.25;;;;;10.05;63.12;101563.13;5119122;27;45747;-84
2022/03/09 09:10:51;;;;;;;;;35.25;33.75;;;;;10.06;63.10;101543.00;5129644;27;45303;-83
2022/03/09 09:13:17;;;;;;;;;46.00;40.33;;;;;10.12;63.26;101543.31;5129164;27;45467;-83
2022/03/09 09:15:42;;;;;;;;;39.75;36.50;;;;;10.29;63.61;101547.66;5112203;27;45524;-84
2022/03/09 09:18:08;;;;;;;;;57.00;47.50;;;;;10.43;63.14;101561.47;5112284;27;45388;-84
2022/03/09 09:20:35;;;;;;;;;39.00;34.25;;;;;10.29;63.23;101504.72;5093956;27;45651;-85
2022/03/09 09:23:01;;;;;;;;;27.00;24.25;;;;;10.57;62.96;101544.66;5129268;27;45590;-84
2022/03/09 09:25:27;;;;;;;;;28.75;26.00;;;;;10.26;62.94;101509.88;5117478;27;45531;-84
2022/03/09 09:27:54;;;;;;;;;55.25;46.00;;;;;10.30;63.51;101532.84;5112182;27;45445;-83
2022/03/09 09:30:20;;;;;;;;;27.00;26.25;;;;;9.60;63.93;101416.44;5121399;27;45747;-85
2022/03/09 09:32:46;;;;;;;;;40.00;37.00;;;;;9.94;64.26;101492.50;5133482;27;45477;-84
2022/03/09 09:35:13;;;;;;;;;29.00;27.50;;;;;10.10;64.34;101526.59;5114842;27;45695;-84
2022/03/09 09:37:39;;;;;;;;;34.50;30.50;;;;;10.11;64.68;101530.09;5132352;27;45803;-83
2022/03/09 09:40:07;;;;;;;;;25.75;25.75;;;;;10.15;65.07;101530.34;5133329;27;45531;-84
2022/03/09 09:42:33;;;;;;;;;26.00;24.00;;;;;9.97;65.12;101490.94;5114138;27;45465;-84
2022/03/09 09:45:00;;;;;;;;;25.00;24.75;;;;;10.29;64.84;101523.13;5132846;27;45427;-83
2022/03/09 09:47:29;;;;;;;;;28.25;24.00;;;;;10.36;65.03;101514.72;5123479;27;45578;-84
2022/03/09 09:49:58;;;;;;;;;29.25;25.25;;;;;10.40;64.71;101484.25;5094099;27;45529;-84
2022/03/09 09:52:27;;;;;;;;;30.50;28.75;;;;;10.83;64.70;101516.94;5112446;27;45576;-82
2022/03/09 09:54:55;;;;;;;;;26.00;25.50;;;;;10.60;63.83;101444.03;5118478;27;45884;-83
2022/03/09 09:57:21;;;;;;;;;52.75;42.00;;;;;10.92;63.70;101515.56;5124043;27;45783;-82
2022/03/09 09:59:47;;;;;;;;;26.00;25.50;;;;;10.79;63.93;101488.72;5112633;27;46080;-83
2022/03/09 10:02:12;;;;;;;;;35.75;31.00;;;;;10.54;63.98;101444.66;5133549;27;45350;-83
2022/03/09 10:04:39;;;;;;;;;32.75;30.50;;;;;10.88;64.04;101514.50;5122781;27;45838;-83
2022/03/09 10:07:04;;;;;;;;;34.75;33.25;;;;;10.61;63.70;101466.84;5140407;27;45195;-83
2022/03/09 10:09:40;;;;;;;;;31.25;26.75;;;;;10.75;63.78;101492.03;5132656;27;45463;-83
2022/03/09 10:12:08;;;;;;;;;87.00;70.00;;;;;10.85;63.98;101509.13;5133125;27;45507;-83
2022/03/09 10:14:56;;;;;;;;;28.00;25.00;;;;;10.89;63.95;101510.19;5131900;27;45481;-83
2022/03/09 10:17:27;;;;;;;;;16.75;16.00;;;;;10.89;64.25;101507.56;5118645;27;46643;-83
2022/03/09 10:20:06;;;;;;;;;18.50;16.25;;;;;10.72;64.62;101470.84;5113747;27;45413;-83
2022/03/09 10:22:32;;;;;;;;;17.00;13.25;;;;;11.02;64.66;101512.50;5113496;27;45625;-83
2022/03/09 10:25:01;;;;;;;;;14.00;10.75;;;;;11.08;64.05;101515.41;5113983;27;45671;-83
2022/03/09 10:27:52;;;;;;;;;15.75;13.50;;;;;11.11;64.04;101505.94;5112998;27;47272;-83
2022/03/09 10:30:20;;;;;;;;;50.50;42.00;;;;;11.03;64.15;101488.00;5131260;27;45968;-83
2022/03/09 10:32:56;;;;;;;;;14.50;14.50;;;;;11.13;63.55;101506.00;5132656;27;45479;-83
2022/03/09 10:35:30;;;;;;;;;13.75;11.50;;;;;11.18;63.63;101504.50;5131776;27;45623;-83
2022/03/09 10:37:56;;;;;;;;;13.00;12.75;;;;;11.04;63.95;101485.47;5113586;27;47222;-83
2022/03/09 10:40:23;;;;;;;;;16.00;13.25;;;;;11.13;63.52;101484.03;5131704;27;45881;-83
2022/03/09 10:42:50;;;;;;;;;12.25;11.50;;;;;11.16;63.61;101486.81;5131950;27;45600;-83
2022/03/09 10:45:17;;;;;;;;;18.25;16.75;;;;;11.19;63.74;101484.34;5132067;27;45663;-82
2022/03/09 10:47:48;;;;;;;;;13.00;12.75;;;;;11.31;62.98;101498.03;5121779;27;45472;-83
2022/03/09 10:50:15;;;;;;;;;16.50;15.00;;;;;11.33;63.15;101494.63;5109593;27;45444;-83
2022/03/09 10:52:47;;;;;;;;;14.25;14.25;;;;;11.40;62.94;101495.78;5092856;27;45532;-83
2022/03/09 10:55:36;;;;;;;;;15.25;15.00;;;;;11.43;63.42;101474.88;5111290;27;45751;-83
2022/03/09 10:58:17;;;;;;;;;16.75;16.00;;;;;11.65;63.70;101492.47;5110580;27;45611;-84
2022/03/09 11:00:46;;;;;;;;;14.75;14.75;;;;;11.67;63.11;101472.34;5111080;27;45399;-83
2022/03/09 11:03:23;;;;;;;;;17.00;16.50;;;;;11.84;62.85;101481.00;5130501;27;45078;-82
2022/03/09 11:05:56;;;;;;;;;17.50;17.50;;;;;12.06;62.72;101501.22;5105273;27;45497;-83
2022/03/09 11:08:24;;;;;;;;;23.00;20.00;;;;;12.22;62.45;101505.38;5103948;27;47789;-82
2022/03/09 11:10:50;;;;;;;;;18.25;15.75;;;;;12.47;62.35;101508.16;5119667;27;45588;-84
2022/03/09 11:13:17;;;;;;;;;18.00;17.00;;;;;12.57;61.74;101459.31;5099967;27;45396;-83
2022/03/09 11:15:44;;;;;;;;;21.75;20.75;;;;;13.16;60.64;101490.53;5123503;27;45239;-83